This is the latest recevied weather packets stored in our database for station/object IONIA-WX. If no packets are shown the sender has not sent any weather packets the latest 10 day(s).
| Time | Temp. | Humidity | Pressure | Rain* | Wind** | Luminosity | Snow |
|---|---|---|---|---|---|---|---|
| 1787877017 | 22.22° C | 52% | 986.9 hPa | 0 mm | - | - | - |
| 1787876121 | 22.22° C | 52% | 986.9 hPa | 0 mm | - | - | - |
| 1787875222 | 22.78° C | 52% | 986.9 hPa | 0 mm | - | - | - |
| 1787874316 | 23.33° C | 49% | 986 hPa | 0 mm | - | - | - |
| 1787873422 | 23.89° C | 46% | 985.6 hPa | 0 mm | - | - | - |
| 1787872517 | 24.44° C | 46% | 985.5 hPa | 0 mm | - | - | - |
| 1787871621 | 24.44° C | 46% | 985.5 hPa | 0 mm | - | - | - |
| 1787870717 | 25° C | 43% | 985.6 hPa | 0 mm | - | - | - |
| 1787869818 | 25.56° C | 45% | 985.8 hPa | 0 mm | - | - | - |
| 1787868920 | 25.56° C | 45% | 985.8 hPa | 0 mm | - | - | - |
| 1787868025 | 25.56° C | 45% | 985.8 hPa | 0 mm | - | - | - |
| 1787867121 | 25.56° C | 49% | 985.2 hPa | 0 mm | - | - | - |
| 1787866221 | 25.56° C | 48% | 985.4 hPa | 0 mm | - | - | - |
| 1787865318 | 25.56° C | 48% | 985.5 hPa | 0 mm | - | - | - |
| 1787864418 | 25.56° C | 48% | 985.5 hPa | 0 mm | - | - | - |
| 1787863519 | 25.56° C | 49% | 985.4 hPa | 0 mm | - | - | - |
| 1787862620 | 25.56° C | 50% | 985.3 hPa | 0 mm | - | - | - |
| 1787861718 | 25.56° C | 50% | 985.3 hPa | 0 mm | - | - | - |
| 1787860821 | 25.56° C | 49% | 986 hPa | 0 mm | - | - | - |
| 1787859926 | 25.56° C | 54% | 985 hPa | 0 mm | - | - | - |
| 1787859020 | 25.56° C | 54% | 985 hPa | 0 mm | - | - | - |
| 1787858117 | 25.56° C | 50% | 985.5 hPa | 0 mm | - | - | - |
| 1787857220 | 25.56° C | 50% | 985.5 hPa | 0 mm | - | - | - |
| 1787856318 | 25.56° C | 56% | 984.7 hPa | 0 mm | - | - | - |
| 1787855420 | 25° C | 56% | 984.7 hPa | 0 mm | - | - | - |
* Rain latest hour (hover to see other rain measurements)
** Current wind speed in m/s (hover to see current wind gust speed)